sensor_id;sensor_type;location;lat;lon;timestamp;pressure;altitude;pressure_sealevel;temperature;humidity
80966;BME280;70426;37.772;-122.432;2024-01-30T00:00:01;101160.82;;;23.14;25.75
80966;BME280;70426;37.772;-122.432;2024-01-30T00:02:26;101154.92;;;22.78;25.73
80966;BME280;70426;37.772;-122.432;2024-01-30T00:04:51;101152.72;;;23.60;24.73
80966;BME280;70426;37.772;-122.432;2024-01-30T00:07:17;101154.32;;;23.34;25.97
80966;BME280;70426;37.772;-122.432;2024-01-30T00:09:43;101157.40;;;22.99;26.25
80966;BME280;70426;37.772;-122.432;2024-01-30T00:12:07;101161.12;;;23.02;25.53
80966;BME280;70426;37.772;-122.432;2024-01-30T00:14:32;101163.26;;;23.24;26.38
80966;BME280;70426;37.772;-122.432;2024-01-30T00:16:57;101169.60;;;23.20;26.18
80966;BME280;70426;37.772;-122.432;2024-01-30T00:19:22;101173.07;;;23.13;25.10
80966;BME280;70426;37.772;-122.432;2024-01-30T00:21:47;101177.21;;;22.66;25.91
80966;BME280;70426;37.772;-122.432;2024-01-30T00:24:12;101180.58;;;23.23;25.29
80966;BME280;70426;37.772;-122.432;2024-01-30T00:26:37;101181.33;;;23.10;25.24
80966;BME280;70426;37.772;-122.432;2024-01-30T00:29:02;101182.71;;;22.41;25.51
80966;BME280;70426;37.772;-122.432;2024-01-30T00:31:27;101189.31;;;22.52;25.50
80966;BME280;70426;37.772;-122.432;2024-01-30T00:33:52;101189.49;;;22.77;25.93
80966;BME280;70426;37.772;-122.432;2024-01-30T00:36:17;101188.23;;;22.97;25.97
80966;BME280;70426;37.772;-122.432;2024-01-30T00:38:42;101188.45;;;22.88;25.80
80966;BME280;70426;37.772;-122.432;2024-01-30T00:41:08;101191.58;;;22.72;25.94
80966;BME280;70426;37.772;-122.432;2024-01-30T00:43:32;101195.73;;;22.38;26.82
80966;BME280;70426;37.772;-122.432;2024-01-30T00:45:58;101199.28;;;22.45;26.50
80966;BME280;70426;37.772;-122.432;2024-01-30T00:48:23;101203.63;;;22.25;26.91
80966;BME280;70426;37.772;-122.432;2024-01-30T00:50:48;101206.27;;;22.16;26.91
80966;BME280;70426;37.772;-122.432;2024-01-30T00:53:12;101213.48;;;22.41;26.96
80966;BME280;70426;37.772;-122.432;2024-01-30T00:55:37;101216.52;;;22.29;27.16
80966;BME280;70426;37.772;-122.432;2024-01-30T00:58:03;101219.57;;;22.23;27.00
80966;BME280;70426;37.772;-122.432;2024-01-30T01:00:27;101220.56;;;21.97;27.19
80966;BME280;70426;37.772;-122.432;2024-01-30T01:02:52;101217.26;;;22.28;27.21
80966;BME280;70426;37.772;-122.432;2024-01-30T01:05:17;101222.04;;;22.06;27.31
80966;BME280;70426;37.772;-122.432;2024-01-30T01:07:42;101221.12;;;21.74;27.57
80966;BME280;70426;37.772;-122.432;2024-01-30T01:10:08;101223.86;;;21.72;27.38
80966;BME280;70426;37.772;-122.432;2024-01-30T01:12:33;101221.91;;;21.72;27.34
80966;BME280;70426;37.772;-122.432;2024-01-30T01:14:58;101215.78;;;21.36;27.74
80966;BME280;70426;37.772;-122.432;2024-01-30T01:17:23;101214.05;;;21.94;27.34
80966;BME280;70426;37.772;-122.432;2024-01-30T01:19:47;101210.87;;;21.80;27.43
80966;BME280;70426;37.772;-122.432;2024-01-30T01:22:13;101206.70;;;21.72;27.53
80966;BME280;70426;37.772;-122.432;2024-01-30T01:24:38;101203.98;;;21.46;27.61
80966;BME280;70426;37.772;-122.432;2024-01-30T01:27:05;101197.11;;;21.97;27.44
80966;BME280;70426;37.772;-122.432;2024-01-30T01:29:28;101189.46;;;21.87;27.31
80966;BME280;70426;37.772;-122.432;2024-01-30T01:31:53;101182.69;;;22.05;27.36
80966;BME280;70426;37.772;-122.432;2024-01-30T01:34:18;101175.71;;;22.04;27.12
80966;BME280;70426;37.772;-122.432;2024-01-30T01:36:43;101174.24;;;21.46;27.30
80966;BME280;70426;37.772;-122.432;2024-01-30T01:39:08;101167.50;;;21.81;27.16
80966;BME280;70426;37.772;-122.432;2024-01-30T01:41:33;101169.94;;;21.42;27.60
80966;BME280;70426;37.772;-122.432;2024-01-30T01:43:58;101163.23;;;21.94;27.65
80966;BME280;70426;37.772;-122.432;2024-01-30T01:46:26;101156.66;;;22.13;27.32
80966;BME280;70426;37.772;-122.432;2024-01-30T01:48:48;101147.48;;;22.26;27.47
80966;BME280;70426;37.772;-122.432;2024-01-30T01:51:13;101140.16;;;22.02;27.58
80966;BME280;70426;37.772;-122.432;2024-01-30T01:53:38;101139.10;;;21.56;27.88
80966;BME280;70426;37.772;-122.432;2024-01-30T01:56:03;101135.78;;;21.97;27.77
80966;BME280;70426;37.772;-122.432;2024-01-30T01:58:28;101129.09;;;21.41;27.99
80966;BME280;70426;37.772;-122.432;2024-01-30T02:00:54;101135.73;;;21.85;27.92
80966;BME280;70426;37.772;-122.432;2024-01-30T02:03:19;101143.59;;;21.55;27.89
80966;BME280;70426;37.772;-122.432;2024-01-30T02:05:44;101149.84;;;21.46;28.59
80966;BME280;70426;37.772;-122.432;2024-01-30T02:08:09;101161.17;;;21.57;29.18
80966;BME280;70426;37.772;-122.432;2024-01-30T02:10:39;101161.43;;;21.48;28.62
80966;BME280;70426;37.772;-122.432;2024-01-30T02:12:59;101167.88;;;21.17;28.91
80966;BME280;70426;37.772;-122.432;2024-01-30T02:15:24;101179.63;;;21.10;29.30
80966;BME280;70426;37.772;-122.432;2024-01-30T02:17:49;101188.50;;;21.15;28.54
80966;BME280;70426;37.772;-122.432;2024-01-30T02:20:14;101194.86;;;21.44;28.78
80966;BME280;70426;37.772;-122.432;2024-01-30T02:22:40;101197.73;;;21.75;28.76
80966;BME280;70426;37.772;-122.432;2024-01-30T02:25:04;101198.23;;;21.58;28.47
80966;BME280;70426;37.772;-122.432;2024-01-30T02:27:29;101199.66;;;21.72;28.79
80966;BME280;70426;37.772;-122.432;2024-01-30T02:29:54;101200.76;;;21.08;28.67
80966;BME280;70426;37.772;-122.432;2024-01-30T02:32:19;101201.70;;;21.68;28.55
80966;BME280;70426;37.772;-122.432;2024-01-30T02:34:44;101201.10;;;21.31;28.60
80966;BME280;70426;37.772;-122.432;2024-01-30T02:37:09;101202.27;;;21.43;28.94
80966;BME280;70426;37.772;-122.432;2024-01-30T02:39:34;101207.47;;;21.66;28.83
80966;BME280;70426;37.772;-122.432;2024-01-30T02:42:01;101209.61;;;21.37;28.90
80966;BME280;70426;37.772;-122.432;2024-01-30T02:44:26;101209.86;;;21.36;28.97
80966;BME280;70426;37.772;-122.432;2024-01-30T02:46:51;101219.25;;;21.43;28.94
80966;BME280;70426;37.772;-122.432;2024-01-30T02:49:17;101216.53;;;22.40;28.03
80966;BME280;70426;37.772;-122.432;2024-01-30T02:51:42;101217.32;;;22.28;28.18
80966;BME280;70426;37.772;-122.432;2024-01-30T02:54:07;101217.94;;;21.97;28.21
80966;BME280;70426;37.772;-122.432;2024-01-30T02:56:32;101216.73;;;21.99;28.21
80966;BME280;70426;37.772;-122.432;2024-01-30T02:58:58;101221.50;;;22.34;28.74
80966;BME280;70426;37.772;-122.432;2024-01-30T03:01:23;101224.32;;;21.58;29.23
80966;BME280;70426;37.772;-122.432;2024-01-30T03:03:49;101220.76;;;21.81;29.28
80966;BME280;70426;37.772;-122.432;2024-01-30T03:06:15;101216.02;;;21.95;29.47
80966;BME280;70426;37.772;-122.432;2024-01-30T03:08:40;101217.07;;;21.81;29.38
80966;BME280;70426;37.772;-122.432;2024-01-30T03:11:05;101219.53;;;21.92;29.80
80966;BME280;70426;37.772;-122.432;2024-01-30T03:13:31;101219.61;;;22.18;29.60
80966;BME280;70426;37.772;-122.432;2024-01-30T03:15:57;101224.09;;;21.89;29.62
80966;BME280;70426;37.772;-122.432;2024-01-30T03:18:22;101226.89;;;21.50;29.82
80966;BME280;70426;37.772;-122.432;2024-01-30T03:20:48;101227.49;;;22.19;29.81
80966;BME280;70426;37.772;-122.432;2024-01-30T03:23:13;101220.44;;;22.04;29.57
80966;BME280;70426;37.772;-122.432;2024-01-30T03:25:38;101221.32;;;21.82;29.81
80966;BME280;70426;37.772;-122.432;2024-01-30T03:28:04;101219.21;;;22.10;29.77
80966;BME280;70426;37.772;-122.432;2024-01-30T03:30:29;101219.07;;;21.71;29.63
80966;BME280;70426;37.772;-122.432;2024-01-30T03:32:54;101222.17;;;21.57;29.70
80966;BME280;70426;37.772;-122.432;2024-01-30T03:35:20;101222.17;;;21.98;29.59
80966;BME280;70426;37.772;-122.432;2024-01-30T03:37:45;101227.33;;;21.89;29.60
80966;BME280;70426;37.772;-122.432;2024-01-30T03:40:11;101234.50;;;21.82;29.75
80966;BME280;70426;37.772;-122.432;2024-01-30T03:42:36;101232.81;;;22.06;29.61
80966;BME280;70426;37.772;-122.432;2024-01-30T03:45:02;101234.89;;;21.77;29.96
80966;BME280;70426;37.772;-122.432;2024-01-30T03:47:27;101237.34;;;21.83;30.01
80966;BME280;70426;37.772;-122.432;2024-01-30T03:49:52;101237.06;;;21.72;30.26
80966;BME280;70426;37.772;-122.432;2024-01-30T03:52:18;101234.53;;;21.78;30.85
80966;BME280;70426;37.772;-122.432;2024-01-30T03:54:43;101233.11;;;21.83;30.56
80966;BME280;70426;37.772;-122.432;2024-01-30T03:57:09;101235.83;;;21.46;31.03
80966;BME280;70426;37.772;-122.432;2024-01-30T03:59:35;101241.91;;;21.40;30.76
80966;BME280;70426;37.772;-122.432;2024-01-30T04:02:00;101242.41;;;21.52;30.47
80966;BME280;70426;37.772;-122.432;2024-01-30T04:04:25;101239.12;;;21.33;30.42
80966;BME280;70426;37.772;-122.432;2024-01-30T04:06:50;101238.85;;;21.76;30.51
80966;BME280;70426;37.772;-122.432;2024-01-30T04:09:16;101238.33;;;21.80;30.56
80966;BME280;70426;37.772;-122.432;2024-01-30T04:11:41;101240.38;;;21.66;30.71
80966;BME280;70426;37.772;-122.432;2024-01-30T04:14:07;101241.40;;;21.72;30.29
80966;BME280;70426;37.772;-122.432;2024-01-30T04:16:32;101242.86;;;21.61;30.34
80966;BME280;70426;37.772;-122.432;2024-01-30T04:18:57;101242.08;;;21.41;30.67
80966;BME280;70426;37.772;-122.432;2024-01-30T04:21:22;101243.97;;;21.67;30.33
80966;BME280;70426;37.772;-122.432;2024-01-30T04:23:48;101246.50;;;21.61;30.33
80966;BME280;70426;37.772;-122.432;2024-01-30T04:26:13;101252.46;;;21.95;29.98
80966;BME280;70426;37.772;-122.432;2024-01-30T04:28:38;101257.75;;;21.29;30.76
80966;BME280;70426;37.772;-122.432;2024-01-30T04:31:04;101259.79;;;21.60;30.43
80966;BME280;70426;37.772;-122.432;2024-01-30T04:33:28;101264.42;;;21.22;30.28
80966;BME280;70426;37.772;-122.432;2024-01-30T04:35:53;101265.51;;;21.09;30.39
80966;BME280;70426;37.772;-122.432;2024-01-30T04:38:19;101270.00;;;21.85;30.21
80966;BME280;70426;37.772;-122.432;2024-01-30T04:40:44;101275.44;;;21.64;30.19
80966;BME280;70426;37.772;-122.432;2024-01-30T04:43:09;101281.34;;;21.35;31.17
80966;BME280;70426;37.772;-122.432;2024-01-30T04:45:36;101290.15;;;22.05;30.95
80966;BME280;70426;37.772;-122.432;2024-01-30T04:48:00;101293.54;;;21.91;32.09
80966;BME280;70426;37.772;-122.432;2024-01-30T04:50:25;101295.96;;;21.71;32.02
80966;BME280;70426;37.772;-122.432;2024-01-30T04:52:50;101301.12;;;22.29;32.54
80966;BME280;70426;37.772;-122.432;2024-01-30T04:55:16;101305.54;;;21.66;33.76
80966;BME280;70426;37.772;-122.432;2024-01-30T04:57:41;101306.73;;;22.00;33.86
80966;BME280;70426;37.772;-122.432;2024-01-30T05:00:08;101302.53;;;21.69;32.88
80966;BME280;70426;37.772;-122.432;2024-01-30T05:02:33;101295.44;;;21.66;32.86
80966;BME280;70426;37.772;-122.432;2024-01-30T05:04:57;101293.25;;;21.84;32.57
80966;BME280;70426;37.772;-122.432;2024-01-30T05:07:22;101294.57;;;22.07;33.13
80966;BME280;70426;37.772;-122.432;2024-01-30T05:09:47;101289.33;;;22.22;32.94
80966;BME280;70426;37.772;-122.432;2024-01-30T05:12:12;101286.72;;;21.67;33.22
80966;BME280;70426;37.772;-122.432;2024-01-30T05:14:38;101288.24;;;22.10;33.42
80966;BME280;70426;37.772;-122.432;2024-01-30T05:17:02;101286.18;;;22.23;33.14
80966;BME280;70426;37.772;-122.432;2024-01-30T05:19:28;101282.56;;;21.70;33.37
80966;BME280;70426;37.772;-122.432;2024-01-30T05:21:53;101275.40;;;21.64;33.45
80966;BME280;70426;37.772;-122.432;2024-01-30T05:24:18;101264.24;;;21.81;33.51
80966;BME280;70426;37.772;-122.432;2024-01-30T05:26:49;101251.91;;;21.56;33.63
80966;BME280;70426;37.772;-122.432;2024-01-30T05:29:08;101245.37;;;21.76;33.66
80966;BME280;70426;37.772;-122.432;2024-01-30T05:31:34;101242.98;;;21.82;33.66
80966;BME280;70426;37.772;-122.432;2024-01-30T05:33:58;101239.79;;;21.95;33.72
80966;BME280;70426;37.772;-122.432;2024-01-30T05:36:23;101239.26;;;22.02;33.59
80966;BME280;70426;37.772;-122.432;2024-01-30T05:38:48;101236.36;;;21.57;33.62
80966;BME280;70426;37.772;-122.432;2024-01-30T05:41:14;101236.47;;;22.17;33.34
80966;BME280;70426;37.772;-122.432;2024-01-30T05:43:39;101239.74;;;21.79;33.44
80966;BME280;70426;37.772;-122.432;2024-01-30T05:46:04;101246.89;;;21.55;33.46
80966;BME280;70426;37.772;-122.432;2024-01-30T05:48:29;101254.45;;;21.79;33.41
80966;BME280;70426;37.772;-122.432;2024-01-30T05:50:54;101256.83;;;21.53;33.38
80966;BME280;70426;37.772;-122.432;2024-01-30T05:53:19;101264.03;;;22.11;33.20
80966;BME280;70426;37.772;-122.432;2024-01-30T05:55:44;101265.37;;;21.89;33.40
80966;BME280;70426;37.772;-122.432;2024-01-30T05:58:09;101265.71;;;21.50;33.24
80966;BME280;70426;37.772;-122.432;2024-01-30T06:00:34;101267.92;;;21.58;33.37
80966;BME280;70426;37.772;-122.432;2024-01-30T06:02:59;101269.57;;;21.86;33.30
80966;BME280;70426;37.772;-122.432;2024-01-30T06:05:24;101271.43;;;21.07;33.34
80966;BME280;70426;37.772;-122.432;2024-01-30T06:07:49;101271.19;;;21.89;33.18
80966;BME280;70426;37.772;-122.432;2024-01-30T06:10:15;101264.09;;;21.86;33.17
80966;BME280;70426;37.772;-122.432;2024-01-30T06:12:40;101254.75;;;21.56;33.23
80966;BME280;70426;37.772;-122.432;2024-01-30T06:15:06;101247.01;;;21.61;33.20
80966;BME280;70426;37.772;-122.432;2024-01-30T06:17:30;101245.39;;;21.74;33.27
80966;BME280;70426;37.772;-122.432;2024-01-30T06:19:56;101246.91;;;21.62;33.11
80966;BME280;70426;37.772;-122.432;2024-01-30T06:22:21;101245.39;;;21.57;33.14
80966;BME280;70426;37.772;-122.432;2024-01-30T06:24:47;101247.57;;;21.77;33.91
80966;BME280;70426;37.772;-122.432;2024-01-30T06:27:12;101243.37;;;21.39;34.04
80966;BME280;70426;37.772;-122.432;2024-01-30T06:29:37;101249.12;;;21.56;33.85
80966;BME280;70426;37.772;-122.432;2024-01-30T06:32:02;101254.90;;;21.53;33.89
80966;BME280;70426;37.772;-122.432;2024-01-30T06:34:27;101257.05;;;20.98;34.28
80966;BME280;70426;37.772;-122.432;2024-01-30T06:36:52;101260.85;;;21.19;34.15
80966;BME280;70426;37.772;-122.432;2024-01-30T06:39:18;101259.65;;;21.58;33.89
80966;BME280;70426;37.772;-122.432;2024-01-30T06:41:43;101259.42;;;21.45;33.76
80966;BME280;70426;37.772;-122.432;2024-01-30T06:44:08;101257.49;;;21.62;33.75
80966;BME280;70426;37.772;-122.432;2024-01-30T06:46:33;101255.95;;;21.64;33.46
80966;BME280;70426;37.772;-122.432;2024-01-30T06:48:58;101258.06;;;21.38;33.97
80966;BME280;70426;37.772;-122.432;2024-01-30T06:51:23;101264.19;;;21.80;33.51
80966;BME280;70426;37.772;-122.432;2024-01-30T06:53:48;101267.83;;;21.53;33.57
80966;BME280;70426;37.772;-122.432;2024-01-30T06:56:14;101271.53;;;21.38;33.81
80966;BME280;70426;37.772;-122.432;2024-01-30T06:58:39;101270.06;;;21.84;33.45
80966;BME280;70426;37.772;-122.432;2024-01-30T07:01:04;101269.54;;;21.63;33.70
80966;BME280;70426;37.772;-122.432;2024-01-30T07:03:29;101266.13;;;21.21;34.55
80966;BME280;70426;37.772;-122.432;2024-01-30T07:05:54;101265.79;;;21.08;35.17
80966;BME280;70426;37.772;-122.432;2024-01-30T07:08:20;101266.88;;;21.25;34.42
80966;BME280;70426;37.772;-122.432;2024-01-30T07:10:45;101268.43;;;21.62;34.33
80966;BME280;70426;37.772;-122.432;2024-01-30T07:13:10;101271.53;;;20.91;34.69
80966;BME280;70426;37.772;-122.432;2024-01-30T07:15:35;101268.74;;;21.21;34.63
80966;BME280;70426;37.772;-122.432;2024-01-30T07:18:01;101265.73;;;21.37;34.68
80966;BME280;70426;37.772;-122.432;2024-01-30T07:20:26;101268.43;;;21.51;34.26
80966;BME280;70426;37.772;-122.432;2024-01-30T07:22:51;101278.62;;;21.19;34.58
80966;BME280;70426;37.772;-122.432;2024-01-30T07:25:16;101282.35;;;21.53;34.27
80966;BME280;70426;37.772;-122.432;2024-01-30T07:27:41;101282.59;;;21.68;34.17
80966;BME280;70426;37.772;-122.432;2024-01-30T07:30:07;101283.37;;;21.40;34.03
80966;BME280;70426;37.772;-122.432;2024-01-30T07:32:32;101281.78;;;20.94;34.52
80966;BME280;70426;37.772;-122.432;2024-01-30T07:34:57;101281.43;;;21.36;34.34
80966;BME280;70426;37.772;-122.432;2024-01-30T07:37:22;101275.72;;;21.43;34.53
80966;BME280;70426;37.772;-122.432;2024-01-30T07:39:48;101273.59;;;21.58;34.07
80966;BME280;70426;37.772;-122.432;2024-01-30T07:42:12;101270.50;;;21.59;34.09
80966;BME280;70426;37.772;-122.432;2024-01-30T07:44:37;101273.08;;;21.42;34.22
80966;BME280;70426;37.772;-122.432;2024-01-30T07:47:02;101271.86;;;21.37;34.23
80966;BME280;70426;37.772;-122.432;2024-01-30T07:49:28;101270.27;;;21.28;34.35
80966;BME280;70426;37.772;-122.432;2024-01-30T07:51:53;101262.27;;;21.40;34.16
80966;BME280;70426;37.772;-122.432;2024-01-30T07:54:18;101255.40;;;21.33;34.25
80966;BME280;70426;37.772;-122.432;2024-01-30T07:56:43;101251.40;;;21.62;33.94
80966;BME280;70426;37.772;-122.432;2024-01-30T07:59:10;101245.95;;;21.23;34.28
80966;BME280;70426;37.772;-122.432;2024-01-30T08:01:33;101247.30;;;21.38;33.83
80966;BME280;70426;37.772;-122.432;2024-01-30T08:03:58;101248.97;;;21.58;33.89
80966;BME280;70426;37.772;-122.432;2024-01-30T08:06:23;101241.93;;;21.61;34.17
80966;BME280;70426;37.772;-122.432;2024-01-30T08:08:48;101236.20;;;21.53;34.23
80966;BME280;70426;37.772;-122.432;2024-01-30T08:11:13;101237.09;;;21.19;34.37
80966;BME280;70426;37.772;-122.432;2024-01-30T08:13:38;101237.92;;;21.23;34.37
80966;BME280;70426;37.772;-122.432;2024-01-30T08:16:05;101233.46;;;21.40;34.13
80966;BME280;70426;37.772;-122.432;2024-01-30T08:18:29;101228.23;;;21.07;34.17
80966;BME280;70426;37.772;-122.432;2024-01-30T08:20:54;101229.36;;;21.31;34.22
80966;BME280;70426;37.772;-122.432;2024-01-30T08:23:19;101230.87;;;21.71;33.99
80966;BME280;70426;37.772;-122.432;2024-01-30T08:25:45;101234.02;;;21.35;34.08
80966;BME280;70426;37.772;-122.432;2024-01-30T08:28:09;101237.42;;;21.44;34.28
80966;BME280;70426;37.772;-122.432;2024-01-30T08:30:34;101240.82;;;21.18;34.09
80966;BME280;70426;37.772;-122.432;2024-01-30T08:32:59;101246.57;;;21.36;34.15
80966;BME280;70426;37.772;-122.432;2024-01-30T08:35:24;101253.50;;;21.46;34.12
80966;BME280;70426;37.772;-122.432;2024-01-30T08:37:49;101265.50;;;21.19;34.41
80966;BME280;70426;37.772;-122.432;2024-01-30T08:40:14;101268.21;;;21.29;34.48
80966;BME280;70426;37.772;-122.432;2024-01-30T08:42:39;101272.03;;;21.43;34.09
80966;BME280;70426;37.772;-122.432;2024-01-30T08:45:05;101267.24;;;21.14;34.70
80966;BME280;70426;37.772;-122.432;2024-01-30T08:47:29;101268.08;;;20.89;34.53
80966;BME280;70426;37.772;-122.432;2024-01-30T08:49:56;101258.78;;;21.08;34.53
80966;BME280;70426;37.772;-122.432;2024-01-30T08:52:19;101249.99;;;20.94;34.75
80966;BME280;70426;37.772;-122.432;2024-01-30T08:54:44;101244.54;;;20.75;34.89
80966;BME280;70426;37.772;-122.432;2024-01-30T08:57:09;101249.97;;;21.02;34.58
80966;BME280;70426;37.772;-122.432;2024-01-30T08:59:34;101251.01;;;20.97;34.61
80966;BME280;70426;37.772;-122.432;2024-01-30T09:02:00;101250.91;;;20.93;34.72
80966;BME280;70426;37.772;-122.432;2024-01-30T09:04:25;101249.69;;;20.49;34.64
80966;BME280;70426;37.772;-122.432;2024-01-30T09:06:50;101249.63;;;21.21;34.62
80966;BME280;70426;37.772;-122.432;2024-01-30T09:09:15;101250.22;;;21.28;34.34
80966;BME280;70426;37.772;-122.432;2024-01-30T09:11:40;101253.44;;;21.04;34.65
80966;BME280;70426;37.772;-122.432;2024-01-30T09:14:05;101252.31;;;21.45;34.44
80966;BME280;70426;37.772;-122.432;2024-01-30T09:16:30;101253.96;;;20.77;34.60
80966;BME280;70426;37.772;-122.432;2024-01-30T09:18:55;101250.63;;;21.08;34.56
80966;BME280;70426;37.772;-122.432;2024-01-30T09:21:20;101242.79;;;20.82;34.89
80966;BME280;70426;37.772;-122.432;2024-01-30T09:23:45;101238.07;;;21.35;34.53
80966;BME280;70426;37.772;-122.432;2024-01-30T09:26:10;101232.93;;;20.94;34.68
80966;BME280;70426;37.772;-122.432;2024-01-30T09:28:35;101229.67;;;21.00;34.64
80966;BME280;70426;37.772;-122.432;2024-01-30T09:31:00;101227.48;;;20.92;34.72
80966;BME280;70426;37.772;-122.432;2024-01-30T09:33:25;101228.17;;;20.57;34.61
80966;BME280;70426;37.772;-122.432;2024-01-30T09:35:50;101223.69;;;21.34;34.58
80966;BME280;70426;37.772;-122.432;2024-01-30T09:38:16;101217.99;;;21.02;34.76
80966;BME280;70426;37.772;-122.432;2024-01-30T09:40:40;101222.48;;;21.13;34.63
80966;BME280;70426;37.772;-122.432;2024-01-30T09:43:05;101223.70;;;21.16;34.79
80966;BME280;70426;37.772;-122.432;2024-01-30T09:45:30;101226.12;;;21.26;34.69
80966;BME280;70426;37.772;-122.432;2024-01-30T09:47:55;101222.99;;;21.01;34.98
80966;BME280;70426;37.772;-122.432;2024-01-30T09:50:22;101226.80;;;21.23;34.82
80966;BME280;70426;37.772;-122.432;2024-01-30T09:52:47;101224.30;;;21.03;35.08
80966;BME280;70426;37.772;-122.432;2024-01-30T09:55:11;101222.93;;;21.11;35.01
80966;BME280;70426;37.772;-122.432;2024-01-30T09:57:36;101227.06;;;20.81;35.19
80966;BME280;70426;37.772;-122.432;2024-01-30T10:00:01;101230.93;;;20.98;35.30
80966;BME280;70426;37.772;-122.432;2024-01-30T10:02:26;101231.35;;;21.12;34.85
80966;BME280;70426;37.772;-122.432;2024-01-30T10:04:51;101228.36;;;20.59;35.52
80966;BME280;70426;37.772;-122.432;2024-01-30T10:07:16;101233.26;;;21.12;35.22
80966;BME280;70426;37.772;-122.432;2024-01-30T10:09:41;101231.19;;;20.82;35.62
80966;BME280;70426;37.772;-122.432;2024-01-30T10:12:07;101238.47;;;21.05;35.44
80966;BME280;70426;37.772;-122.432;2024-01-30T10:14:31;101243.05;;;21.06;35.10
80966;BME280;70426;37.772;-122.432;2024-01-30T10:16:57;101243.05;;;21.07;35.34
80966;BME280;70426;37.772;-122.432;2024-01-30T10:19:21;101240.59;;;21.04;35.33
80966;BME280;70426;37.772;-122.432;2024-01-30T10:21:47;101243.04;;;21.12;35.31
80966;BME280;70426;37.772;-122.432;2024-01-30T10:24:11;101246.95;;;21.00;35.38
80966;BME280;70426;37.772;-122.432;2024-01-30T10:26:38;101251.16;;;20.73;35.47
80966;BME280;70426;37.772;-122.432;2024-01-30T10:29:01;101256.11;;;20.75;35.54
80966;BME280;70426;37.772;-122.432;2024-01-30T10:31:26;101254.77;;;20.92;35.60
80966;BME280;70426;37.772;-122.432;2024-01-30T10:33:51;101254.71;;;21.00;35.51
80966;BME280;70426;37.772;-122.432;2024-01-30T10:36:18;101255.61;;;21.14;35.10
80966;BME280;70426;37.772;-122.432;2024-01-30T10:38:43;101249.88;;;20.92;35.27
80966;BME280;70426;37.772;-122.432;2024-01-30T10:41:07;101242.38;;;20.99;35.27
80966;BME280;70426;37.772;-122.432;2024-01-30T10:43:33;101240.66;;;20.70;35.73
80966;BME280;70426;37.772;-122.432;2024-01-30T10:45:58;101246.17;;;20.96;35.58
80966;BME280;70426;37.772;-122.432;2024-01-30T10:48:24;101255.51;;;21.65;34.97
80966;BME280;70426;37.772;-122.432;2024-01-30T10:50:47;101253.86;;;21.09;35.76
80966;BME280;70426;37.772;-122.432;2024-01-30T10:53:12;101260.32;;;21.17;35.35
80966;BME280;70426;37.772;-122.432;2024-01-30T10:55:37;101256.95;;;20.90;35.86
80966;BME280;70426;37.772;-122.432;2024-01-30T10:58:02;101252.54;;;20.78;35.84
80966;BME280;70426;37.772;-122.432;2024-01-30T11:00:27;101256.68;;;20.91;35.74
80966;BME280;70426;37.772;-122.432;2024-01-30T11:02:52;101256.53;;;20.86;35.83
80966;BME280;70426;37.772;-122.432;2024-01-30T11:05:25;101258.67;;;20.78;35.83
80966;BME280;70426;37.772;-122.432;2024-01-30T11:07:42;101264.46;;;21.07;35.56
80966;BME280;70426;37.772;-122.432;2024-01-30T11:10:07;101266.19;;;20.95;35.63
80966;BME280;70426;37.772;-122.432;2024-01-30T11:12:37;101257.69;;;20.77;35.86
80966;BME280;70426;37.772;-122.432;2024-01-30T11:15:07;101258.10;;;20.79;35.56
80966;BME280;70426;37.772;-122.432;2024-01-30T11:17:23;101253.42;;;21.02;35.61
80966;BME280;70426;37.772;-122.432;2024-01-30T11:19:47;101250.42;;;20.97;35.65
80966;BME280;70426;37.772;-122.432;2024-01-30T11:22:12;101249.75;;;20.87;35.77
80966;BME280;70426;37.772;-122.432;2024-01-30T11:24:40;101256.01;;;21.21;35.63
80966;BME280;70426;37.772;-122.432;2024-01-30T11:27:03;101249.22;;;21.14;35.74
80966;BME280;70426;37.772;-122.432;2024-01-30T11:29:28;101239.34;;;20.85;35.77
80966;BME280;70426;37.772;-122.432;2024-01-30T11:31:53;101239.65;;;21.20;35.65
80966;BME280;70426;37.772;-122.432;2024-01-30T11:34:17;101237.38;;;20.81;35.76
80966;BME280;70426;37.772;-122.432;2024-01-30T11:36:43;101233.88;;;20.79;35.83
80966;BME280;70426;37.772;-122.432;2024-01-30T11:39:09;101237.52;;;20.77;35.80
80966;BME280;70426;37.772;-122.432;2024-01-30T11:41:32;101230.37;;;20.68;35.96
80966;BME280;70426;37.772;-122.432;2024-01-30T11:43:57;101221.80;;;20.65;35.97
80966;BME280;70426;37.772;-122.432;2024-01-30T11:46:25;101221.73;;;21.17;35.65
80966;BME280;70426;37.772;-122.432;2024-01-30T11:48:47;101216.75;;;20.95;35.94
80966;BME280;70426;37.772;-122.432;2024-01-30T11:51:13;101215.70;;;20.79;35.80
80966;BME280;70426;37.772;-122.432;2024-01-30T11:53:37;101208.56;;;20.58;36.06
80966;BME280;70426;37.772;-122.432;2024-01-30T11:56:02;101199.11;;;20.17;36.54
80966;BME280;70426;37.772;-122.432;2024-01-30T11:58:27;101195.88;;;20.61;36.03
80966;BME280;70426;37.772;-122.432;2024-01-30T12:00:54;101186.76;;;20.52;36.40
80966;BME280;70426;37.772;-122.432;2024-01-30T12:03:17;101185.58;;;20.52;36.42
80966;BME280;70426;37.772;-122.432;2024-01-30T12:05:42;101183.23;;;20.82;36.12
80966;BME280;70426;37.772;-122.432;2024-01-30T12:08:07;101177.81;;;20.70;35.91